Commanda, Canada
Current Conditions -  °F | °C
As of 4:00 AM on Sunday 23 Nov 2014 (Local Time) from CYYB Reporting Station
Moderate Fog Moderate Fog  
Wind Chill: 32°   Ceiling: 100
Heat Index: 36°   Visibility: 0.12mi
Dew Point: 36°   Wind: 5mph
Humidity: 100%   Direction: 230°SW
Pressure: 29.83"   Gusts: NA
Location:  45.95°N, 79.6°W
Report Text: CYYB 230900Z AUTO 23004KT 1/8SM R08/0900FT/N FG VV001 02/02 A2983 RMK SLP116
Loading
Personal Weather Stations






























Interactive Weather Map New forecast layout! Learn more

10-Day Weather Forecast

Advertisements
Track Severe Weather on mobile